sensor_id;sensor_type;location;lat;lon;timestamp;P1;durP1;ratioP1;P2;durP2;ratioP2
47804;SDS011;33568;45.286;9.900;2024-03-02T00:00:22;13.63;;;5.93;;
47804;SDS011;33568;45.286;9.900;2024-03-02T00:02:50;18.90;;;5.22;;
47804;SDS011;33568;45.286;9.900;2024-03-02T00:05:18;15.68;;;4.45;;
47804;SDS011;33568;45.286;9.900;2024-03-02T00:07:47;16.05;;;4.95;;
47804;SDS011;33568;45.286;9.900;2024-03-02T00:10:22;18.00;;;5.20;;
47804;SDS011;33568;45.286;9.900;2024-03-02T00:12:57;20.30;;;4.95;;
47804;SDS011;33568;45.286;9.900;2024-03-02T00:18:07;20.92;;;4.90;;
47804;SDS011;33568;45.286;9.900;2024-03-02T00:20:36;23.30;;;5.38;;
47804;SDS011;33568;45.286;9.900;2024-03-02T00:26:06;17.45;;;5.07;;
47804;SDS011;33568;45.286;9.900;2024-03-02T00:31:01;15.55;;;5.55;;
47804;SDS011;33568;45.286;9.900;2024-03-02T00:33:32;21.45;;;5.05;;
47804;SDS011;33568;45.286;9.900;2024-03-02T00:36:00;19.90;;;5.28;;
47804;SDS011;33568;45.286;9.900;2024-03-02T00:38:29;16.45;;;4.60;;
47804;SDS011;33568;45.286;9.900;2024-03-02T00:40:58;14.45;;;4.40;;
47804;SDS011;33568;45.286;9.900;2024-03-02T00:43:41;19.15;;;5.10;;
47804;SDS011;33568;45.286;9.900;2024-03-02T00:46:10;12.68;;;4.82;;
47804;SDS011;33568;45.286;9.900;2024-03-02T00:48:54;24.17;;;5.43;;
47804;SDS011;33568;45.286;9.900;2024-03-02T00:51:25;14.73;;;5.22;;
47804;SDS011;33568;45.286;9.900;2024-03-02T00:53:57;15.07;;;4.75;;
47804;SDS011;33568;45.286;9.900;2024-03-02T00:56:25;13.02;;;4.88;;
47804;SDS011;33568;45.286;9.900;2024-03-02T00:58:52;17.77;;;5.60;;
47804;SDS011;33568;45.286;9.900;2024-03-02T01:01:18;16.83;;;4.35;;
47804;SDS011;33568;45.286;9.900;2024-03-02T01:03:45;11.10;;;3.92;;
47804;SDS011;33568;45.286;9.900;2024-03-02T01:06:12;12.63;;;4.43;;
47804;SDS011;33568;45.286;9.900;2024-03-02T01:11:05;10.93;;;4.00;;
47804;SDS011;33568;45.286;9.900;2024-03-02T01:13:31;9.38;;;3.90;;
47804;SDS011;33568;45.286;9.900;2024-03-02T01:15:58;15.38;;;3.80;;
47804;SDS011;33568;45.286;9.900;2024-03-02T01:18:24;12.60;;;4.68;;
47804;SDS011;33568;45.286;9.900;2024-03-02T01:20:51;17.58;;;5.10;;
47804;SDS011;33568;45.286;9.900;2024-03-02T01:23:18;17.90;;;4.35;;
47804;SDS011;33568;45.286;9.900;2024-03-02T01:25:46;7.35;;;3.30;;
47804;SDS011;33568;45.286;9.900;2024-03-02T01:28:13;9.80;;;3.50;;
47804;SDS011;33568;45.286;9.900;2024-03-02T01:30:40;11.45;;;4.13;;
47804;SDS011;33568;45.286;9.900;2024-03-02T01:33:07;18.48;;;4.20;;
47804;SDS011;33568;45.286;9.900;2024-03-02T01:35:33;15.40;;;4.20;;
47804;SDS011;33568;45.286;9.900;2024-03-02T01:38:03;22.50;;;6.35;;
47804;SDS011;33568;45.286;9.900;2024-03-02T01:40:35;13.07;;;4.25;;
47804;SDS011;33568;45.286;9.900;2024-03-02T01:43:02;13.20;;;4.43;;
47804;SDS011;33568;45.286;9.900;2024-03-02T01:45:33;19.05;;;4.25;;
47804;SDS011;33568;45.286;9.900;2024-03-02T01:48:01;14.63;;;4.43;;
47804;SDS011;33568;45.286;9.900;2024-03-02T01:50:29;10.80;;;3.90;;
47804;SDS011;33568;45.286;9.900;2024-03-02T01:52:57;16.15;;;4.57;;
47804;SDS011;33568;45.286;9.900;2024-03-02T01:55:24;14.10;;;4.82;;
47804;SDS011;33568;45.286;9.900;2024-03-02T01:57:51;12.13;;;4.03;;
47804;SDS011;33568;45.286;9.900;2024-03-02T02:00:21;20.40;;;4.60;;
47804;SDS011;33568;45.286;9.900;2024-03-02T02:02:48;13.30;;;3.45;;
47804;SDS011;33568;45.286;9.900;2024-03-02T02:05:15;15.55;;;3.92;;
47804;SDS011;33568;45.286;9.900;2024-03-02T02:07:43;17.13;;;4.78;;
47804;SDS011;33568;45.286;9.900;2024-03-02T02:10:10;16.13;;;5.63;;
47804;SDS011;33568;45.286;9.900;2024-03-02T02:12:37;11.88;;;4.22;;
47804;SDS011;33568;45.286;9.900;2024-03-02T02:15:23;11.48;;;4.22;;
47804;SDS011;33568;45.286;9.900;2024-03-02T02:17:50;11.07;;;4.07;;
47804;SDS011;33568;45.286;9.900;2024-03-02T02:20:16;13.07;;;4.15;;
47804;SDS011;33568;45.286;9.900;2024-03-02T02:22:53;14.30;;;3.55;;
47804;SDS011;33568;45.286;9.900;2024-03-02T02:25:27;14.63;;;4.00;;
47804;SDS011;33568;45.286;9.900;2024-03-02T02:27:54;10.45;;;3.97;;
47804;SDS011;33568;45.286;9.900;2024-03-02T02:30:21;15.07;;;4.07;;
47804;SDS011;33568;45.286;9.900;2024-03-02T02:32:49;15.00;;;4.45;;
47804;SDS011;33568;45.286;9.900;2024-03-02T02:35:17;14.23;;;4.53;;
47804;SDS011;33568;45.286;9.900;2024-03-02T02:37:44;17.20;;;4.18;;
47804;SDS011;33568;45.286;9.900;2024-03-02T02:40:12;12.18;;;3.65;;
47804;SDS011;33568;45.286;9.900;2024-03-02T02:42:39;12.32;;;3.83;;
47804;SDS011;33568;45.286;9.900;2024-03-02T02:47:32;18.83;;;4.57;;
47804;SDS011;33568;45.286;9.900;2024-03-02T02:50:02;13.32;;;3.55;;
47804;SDS011;33568;45.286;9.900;2024-03-02T02:52:33;9.20;;;3.72;;
47804;SDS011;33568;45.286;9.900;2024-03-02T02:55:05;11.75;;;3.88;;
47804;SDS011;33568;45.286;9.900;2024-03-02T02:57:33;12.50;;;3.92;;
47804;SDS011;33568;45.286;9.900;2024-03-02T03:00:08;16.42;;;4.32;;
47804;SDS011;33568;45.286;9.900;2024-03-02T03:02:42;16.77;;;4.00;;
47804;SDS011;33568;45.286;9.900;2024-03-02T03:05:10;15.68;;;4.80;;
47804;SDS011;33568;45.286;9.900;2024-03-02T03:07:39;9.93;;;3.63;;
47804;SDS011;33568;45.286;9.900;2024-03-02T03:10:06;13.02;;;3.97;;
47804;SDS011;33568;45.286;9.900;2024-03-02T03:12:33;14.90;;;4.43;;
47804;SDS011;33568;45.286;9.900;2024-03-02T03:15:00;17.70;;;4.55;;
47804;SDS011;33568;45.286;9.900;2024-03-02T03:17:27;16.00;;;4.10;;
47804;SDS011;33568;45.286;9.900;2024-03-02T03:19:53;14.05;;;4.43;;
47804;SDS011;33568;45.286;9.900;2024-03-02T03:22:20;14.40;;;4.95;;
47804;SDS011;33568;45.286;9.900;2024-03-02T03:27:13;13.40;;;3.95;;
47804;SDS011;33568;45.286;9.900;2024-03-02T03:32:05;18.95;;;5.60;;
47804;SDS011;33568;45.286;9.900;2024-03-02T03:34:33;10.25;;;3.67;;
47804;SDS011;33568;45.286;9.900;2024-03-02T03:37:00;16.58;;;4.10;;
47804;SDS011;33568;45.286;9.900;2024-03-02T03:39:26;16.90;;;7.53;;
47804;SDS011;33568;45.286;9.900;2024-03-02T03:41:54;21.40;;;11.88;;
47804;SDS011;33568;45.286;9.900;2024-03-02T03:44:20;25.15;;;12.50;;
47804;SDS011;33568;45.286;9.900;2024-03-02T03:46:47;16.20;;;8.15;;
47804;SDS011;33568;45.286;9.900;2024-03-02T03:49:13;18.48;;;11.13;;
47804;SDS011;33568;45.286;9.900;2024-03-02T03:54:08;11.90;;;4.78;;
47804;SDS011;33568;45.286;9.900;2024-03-02T03:56:37;14.98;;;5.15;;
47804;SDS011;33568;45.286;9.900;2024-03-02T03:59:03;18.10;;;4.47;;
47804;SDS011;33568;45.286;9.900;2024-03-02T04:01:30;16.52;;;4.95;;
47804;SDS011;33568;45.286;9.900;2024-03-02T04:03:58;13.55;;;5.10;;
47804;SDS011;33568;45.286;9.900;2024-03-02T04:06:25;13.20;;;5.63;;
47804;SDS011;33568;45.286;9.900;2024-03-02T04:08:51;12.55;;;5.03;;
47804;SDS011;33568;45.286;9.900;2024-03-02T04:11:17;8.93;;;5.93;;
47804;SDS011;33568;45.286;9.900;2024-03-02T04:16:10;12.90;;;4.03;;
47804;SDS011;33568;45.286;9.900;2024-03-02T04:18:38;15.27;;;4.20;;
47804;SDS011;33568;45.286;9.900;2024-03-02T04:21:05;12.38;;;4.05;;
47804;SDS011;33568;45.286;9.900;2024-03-02T04:25:58;9.68;;;3.83;;
47804;SDS011;33568;45.286;9.900;2024-03-02T04:28:24;10.60;;;4.28;;
47804;SDS011;33568;45.286;9.900;2024-03-02T04:30:50;12.13;;;4.25;;
47804;SDS011;33568;45.286;9.900;2024-03-02T04:33:17;10.05;;;4.13;;
47804;SDS011;33568;45.286;9.900;2024-03-02T04:35:43;11.20;;;3.67;;
47804;SDS011;33568;45.286;9.900;2024-03-02T04:38:09;12.02;;;3.38;;
47804;SDS011;33568;45.286;9.900;2024-03-02T04:40:36;12.05;;;3.50;;
47804;SDS011;33568;45.286;9.900;2024-03-02T04:43:02;12.35;;;3.72;;
47804;SDS011;33568;45.286;9.900;2024-03-02T04:45:29;13.65;;;4.03;;
47804;SDS011;33568;45.286;9.900;2024-03-02T04:50:21;10.60;;;3.35;;
47804;SDS011;33568;45.286;9.900;2024-03-02T04:52:48;8.77;;;2.92;;
47804;SDS011;33568;45.286;9.900;2024-03-02T04:55:14;11.85;;;3.58;;
47804;SDS011;33568;45.286;9.900;2024-03-02T04:57:52;10.73;;;4.05;;
47804;SDS011;33568;45.286;9.900;2024-03-02T05:00:22;13.30;;;3.80;;
47804;SDS011;33568;45.286;9.900;2024-03-02T05:02:48;14.93;;;3.60;;
47804;SDS011;33568;45.286;9.900;2024-03-02T05:05:15;10.00;;;4.43;;
47804;SDS011;33568;45.286;9.900;2024-03-02T05:07:41;11.10;;;3.50;;
47804;SDS011;33568;45.286;9.900;2024-03-02T05:10:09;11.68;;;3.90;;
47804;SDS011;33568;45.286;9.900;2024-03-02T05:12:37;13.82;;;3.70;;
47804;SDS011;33568;45.286;9.900;2024-03-02T05:15:11;11.57;;;3.33;;
47804;SDS011;33568;45.286;9.900;2024-03-02T05:17:41;16.60;;;3.80;;
47804;SDS011;33568;45.286;9.900;2024-03-02T05:20:11;16.30;;;4.75;;
47804;SDS011;33568;45.286;9.900;2024-03-02T05:22:38;13.93;;;4.60;;
47804;SDS011;33568;45.286;9.900;2024-03-02T05:25:05;19.08;;;5.20;;
47804;SDS011;33568;45.286;9.900;2024-03-02T05:27:32;15.77;;;4.35;;
47804;SDS011;33568;45.286;9.900;2024-03-02T05:29:59;15.88;;;4.28;;
47804;SDS011;33568;45.286;9.900;2024-03-02T05:32:26;21.85;;;6.22;;
47804;SDS011;33568;45.286;9.900;2024-03-02T05:34:52;12.85;;;4.35;;
47804;SDS011;33568;45.286;9.900;2024-03-02T05:37:18;13.20;;;4.47;;
47804;SDS011;33568;45.286;9.900;2024-03-02T05:39:45;14.13;;;4.85;;
47804;SDS011;33568;45.286;9.900;2024-03-02T05:44:38;22.50;;;4.88;;
47804;SDS011;33568;45.286;9.900;2024-03-02T05:47:05;15.90;;;4.28;;
47804;SDS011;33568;45.286;9.900;2024-03-02T05:49:34;13.43;;;4.40;;
47804;SDS011;33568;45.286;9.900;2024-03-02T05:52:01;18.63;;;5.00;;
47804;SDS011;33568;45.286;9.900;2024-03-02T05:54:28;18.70;;;4.97;;
47804;SDS011;33568;45.286;9.900;2024-03-02T05:56:55;14.07;;;4.35;;
47804;SDS011;33568;45.286;9.900;2024-03-02T05:59:21;13.45;;;3.63;;
47804;SDS011;33568;45.286;9.900;2024-03-02T06:01:48;20.65;;;4.68;;
47804;SDS011;33568;45.286;9.900;2024-03-02T06:04:18;14.40;;;4.55;;
47804;SDS011;33568;45.286;9.900;2024-03-02T06:06:44;15.90;;;4.75;;
47804;SDS011;33568;45.286;9.900;2024-03-02T06:11:40;16.00;;;4.55;;
47804;SDS011;33568;45.286;9.900;2024-03-02T06:14:07;16.20;;;4.25;;
47804;SDS011;33568;45.286;9.900;2024-03-02T06:16:34;16.02;;;3.95;;
47804;SDS011;33568;45.286;9.900;2024-03-02T06:21:28;16.45;;;4.38;;
47804;SDS011;33568;45.286;9.900;2024-03-02T06:23:55;18.98;;;4.38;;
47804;SDS011;33568;45.286;9.900;2024-03-02T06:26:22;13.90;;;3.85;;
47804;SDS011;33568;45.286;9.900;2024-03-02T06:28:48;16.33;;;4.32;;
47804;SDS011;33568;45.286;9.900;2024-03-02T06:31:15;11.95;;;3.47;;
47804;SDS011;33568;45.286;9.900;2024-03-02T06:33:41;13.98;;;4.65;;
47804;SDS011;33568;45.286;9.900;2024-03-02T06:36:08;14.23;;;5.03;;
47804;SDS011;33568;45.286;9.900;2024-03-02T06:38:35;17.73;;;5.32;;
47804;SDS011;33568;45.286;9.900;2024-03-02T06:41:01;16.65;;;5.95;;
47804;SDS011;33568;45.286;9.900;2024-03-02T06:43:28;35.38;;;27.63;;
47804;SDS011;33568;45.286;9.900;2024-03-02T06:45:54;16.20;;;7.03;;
47804;SDS011;33568;45.286;9.900;2024-03-02T06:50:48;25.42;;;6.93;;
47804;SDS011;33568;45.286;9.900;2024-03-02T06:53:15;25.20;;;13.02;;
47804;SDS011;33568;45.286;9.900;2024-03-02T06:55:46;19.58;;;9.25;;
47804;SDS011;33568;45.286;9.900;2024-03-02T06:58:13;15.35;;;5.50;;
47804;SDS011;33568;45.286;9.900;2024-03-02T07:00:44;9.85;;;4.60;;
47804;SDS011;33568;45.286;9.900;2024-03-02T07:03:10;13.90;;;5.43;;
47804;SDS011;33568;45.286;9.900;2024-03-02T07:05:36;20.08;;;6.30;;
47804;SDS011;33568;45.286;9.900;2024-03-02T07:08:03;17.17;;;6.65;;
47804;SDS011;33568;45.286;9.900;2024-03-02T07:10:30;18.27;;;5.30;;
47804;SDS011;33568;45.286;9.900;2024-03-02T07:12:57;12.88;;;8.00;;
47804;SDS011;33568;45.286;9.900;2024-03-02T07:17:52;26.67;;;7.80;;
47804;SDS011;33568;45.286;9.900;2024-03-02T07:20:19;15.75;;;5.82;;
47804;SDS011;33568;45.286;9.900;2024-03-02T07:22:45;19.48;;;5.65;;
47804;SDS011;33568;45.286;9.900;2024-03-02T07:25:12;13.50;;;4.90;;
47804;SDS011;33568;45.286;9.900;2024-03-02T07:27:38;15.88;;;5.00;;
47804;SDS011;33568;45.286;9.900;2024-03-02T07:30:07;11.45;;;6.03;;
47804;SDS011;33568;45.286;9.900;2024-03-02T07:32:34;18.20;;;5.60;;
47804;SDS011;33568;45.286;9.900;2024-03-02T07:35:00;26.48;;;6.80;;
47804;SDS011;33568;45.286;9.900;2024-03-02T07:37:27;14.85;;;5.78;;
47804;SDS011;33568;45.286;9.900;2024-03-02T07:42:20;18.48;;;6.82;;
47804;SDS011;33568;45.286;9.900;2024-03-02T07:47:12;16.13;;;7.72;;
47804;SDS011;33568;45.286;9.900;2024-03-02T07:49:39;14.93;;;5.10;;
47804;SDS011;33568;45.286;9.900;2024-03-02T07:54:31;17.77;;;7.50;;
47804;SDS011;33568;45.286;9.900;2024-03-02T07:56:58;19.15;;;7.47;;
47804;SDS011;33568;45.286;9.900;2024-03-02T08:01:50;15.18;;;8.15;;
47804;SDS011;33568;45.286;9.900;2024-03-02T08:04:17;18.90;;;6.45;;
47804;SDS011;33568;45.286;9.900;2024-03-02T08:06:44;16.75;;;6.80;;
47804;SDS011;33568;45.286;9.900;2024-03-02T08:09:11;15.05;;;6.43;;
47804;SDS011;33568;45.286;9.900;2024-03-02T08:11:37;20.77;;;9.32;;
47804;SDS011;33568;45.286;9.900;2024-03-02T08:14:04;14.65;;;7.15;;
47804;SDS011;33568;45.286;9.900;2024-03-02T08:16:31;16.75;;;11.52;;
47804;SDS011;33568;45.286;9.900;2024-03-02T08:18:58;15.73;;;6.50;;
47804;SDS011;33568;45.286;9.900;2024-03-02T08:21:25;19.23;;;8.70;;
47804;SDS011;33568;45.286;9.900;2024-03-02T08:23:52;15.48;;;9.23;;
47804;SDS011;33568;45.286;9.900;2024-03-02T08:28:44;14.15;;;4.97;;
47804;SDS011;33568;45.286;9.900;2024-03-02T08:31:11;13.23;;;6.35;;
47804;SDS011;33568;45.286;9.900;2024-03-02T08:33:39;17.48;;;8.13;;
47804;SDS011;33568;45.286;9.900;2024-03-02T08:36:06;17.15;;;6.90;;
47804;SDS011;33568;45.286;9.900;2024-03-02T08:38:35;18.80;;;7.15;;
47804;SDS011;33568;45.286;9.900;2024-03-02T08:41:02;16.05;;;6.88;;
47804;SDS011;33568;45.286;9.900;2024-03-02T08:43:29;15.40;;;6.25;;
47804;SDS011;33568;45.286;9.900;2024-03-02T08:45:56;13.48;;;7.45;;
47804;SDS011;33568;45.286;9.900;2024-03-02T08:48:22;20.35;;;6.90;;
47804;SDS011;33568;45.286;9.900;2024-03-02T08:50:48;12.18;;;5.82;;
47804;SDS011;33568;45.286;9.900;2024-03-02T08:53:15;9.85;;;5.05;;
47804;SDS011;33568;45.286;9.900;2024-03-02T08:55:47;13.98;;;5.55;;
47804;SDS011;33568;45.286;9.900;2024-03-02T08:58:13;13.20;;;5.40;;
47804;SDS011;33568;45.286;9.900;2024-03-02T09:00:40;12.90;;;6.10;;
47804;SDS011;33568;45.286;9.900;2024-03-02T09:03:07;15.50;;;5.70;;
47804;SDS011;33568;45.286;9.900;2024-03-02T09:05:33;13.90;;;8.20;;
47804;SDS011;33568;45.286;9.900;2024-03-02T09:08:00;17.98;;;7.30;;
47804;SDS011;33568;45.286;9.900;2024-03-02T09:10:26;24.50;;;10.13;;
47804;SDS011;33568;45.286;9.900;2024-03-02T09:12:52;18.77;;;7.72;;
47804;SDS011;33568;45.286;9.900;2024-03-02T09:17:45;21.75;;;7.35;;
47804;SDS011;33568;45.286;9.900;2024-03-02T09:25:05;18.58;;;6.60;;
47804;SDS011;33568;45.286;9.900;2024-03-02T09:27:38;19.20;;;9.57;;
47804;SDS011;33568;45.286;9.900;2024-03-02T09:30:07;13.10;;;9.07;;
47804;SDS011;33568;45.286;9.900;2024-03-02T09:32:35;16.80;;;7.35;;
47804;SDS011;33568;45.286;9.900;2024-03-02T09:35:02;13.50;;;7.43;;
47804;SDS011;33568;45.286;9.900;2024-03-02T09:37:28;13.30;;;6.80;;
47804;SDS011;33568;45.286;9.900;2024-03-02T09:39:55;14.43;;;9.18;;
47804;SDS011;33568;45.286;9.900;2024-03-02T09:44:48;18.60;;;6.80;;
47804;SDS011;33568;45.286;9.900;2024-03-02T09:49:41;13.85;;;6.72;;
47804;SDS011;33568;45.286;9.900;2024-03-02T09:54:34;31.85;;;16.65;;
47804;SDS011;33568;45.286;9.900;2024-03-02T09:57:00;22.65;;;15.95;;
47804;SDS011;33568;45.286;9.900;2024-03-02T09:59:28;16.88;;;12.90;;
47804;SDS011;33568;45.286;9.900;2024-03-02T10:02:01;37.55;;;22.80;;
47804;SDS011;33568;45.286;9.900;2024-03-02T10:04:29;31.35;;;21.38;;
47804;SDS011;33568;45.286;9.900;2024-03-02T10:09:42;12.82;;;6.93;;
47804;SDS011;33568;45.286;9.900;2024-03-02T10:12:10;17.40;;;9.23;;
47804;SDS011;33568;45.286;9.900;2024-03-02T10:14:38;16.52;;;7.88;;
47804;SDS011;33568;45.286;9.900;2024-03-02T10:17:06;21.02;;;12.00;;
47804;SDS011;33568;45.286;9.900;2024-03-02T10:19:36;34.58;;;18.20;;
47804;SDS011;33568;45.286;9.900;2024-03-02T10:22:05;19.92;;;11.40;;
47804;SDS011;33568;45.286;9.900;2024-03-02T10:27:16;10.10;;;6.22;;
47804;SDS011;33568;45.286;9.900;2024-03-02T10:29:45;16.60;;;9.18;;
47804;SDS011;33568;45.286;9.900;2024-03-02T10:32:12;12.10;;;7.10;;
47804;SDS011;33568;45.286;9.900;2024-03-02T10:37:06;18.30;;;7.13;;
47804;SDS011;33568;45.286;9.900;2024-03-02T10:39:35;13.00;;;8.55;;
47804;SDS011;33568;45.286;9.900;2024-03-02T10:42:03;17.02;;;10.57;;
47804;SDS011;33568;45.286;9.900;2024-03-02T10:44:30;12.10;;;9.32;;
47804;SDS011;33568;45.286;9.900;2024-03-02T10:46:56;13.70;;;7.50;;
47804;SDS011;33568;45.286;9.900;2024-03-02T10:49:30;15.40;;;6.55;;
47804;SDS011;33568;45.286;9.900;2024-03-02T10:51:58;12.18;;;8.40;;
47804;SDS011;33568;45.286;9.900;2024-03-02T10:54:24;19.88;;;11.55;;
47804;SDS011;33568;45.286;9.900;2024-03-02T10:57:01;21.25;;;11.68;;
47804;SDS011;33568;45.286;9.900;2024-03-02T10:59:34;19.50;;;12.73;;
47804;SDS011;33568;45.286;9.900;2024-03-02T11:02:03;27.45;;;18.92;;
47804;SDS011;33568;45.286;9.900;2024-03-02T11:04:32;32.13;;;24.40;;
47804;SDS011;33568;45.286;9.900;2024-03-02T11:07:08;21.45;;;12.02;;
47804;SDS011;33568;45.286;9.900;2024-03-02T11:09:40;23.42;;;14.18;;
47804;SDS011;33568;45.286;9.900;2024-03-02T11:12:15;20.50;;;13.05;;
47804;SDS011;33568;45.286;9.900;2024-03-02T11:14:48;19.90;;;13.60;;
47804;SDS011;33568;45.286;9.900;2024-03-02T11:17:17;12.23;;;8.95;;
47804;SDS011;33568;45.286;9.900;2024-03-02T11:19:44;12.00;;;6.25;;
47804;SDS011;33568;45.286;9.900;2024-03-02T11:22:12;11.93;;;7.45;;
47804;SDS011;33568;45.286;9.900;2024-03-02T11:24:47;14.48;;;9.30;;
47804;SDS011;33568;45.286;9.900;2024-03-02T11:27:15;11.50;;;7.40;;
47804;SDS011;33568;45.286;9.900;2024-03-02T11:30:57;12.40;;;7.38;;
47804;SDS011;33568;45.286;9.900;2024-03-02T11:33:07;12.00;;;7.65;;
47804;SDS011;33568;45.286;9.900;2024-03-02T11:35:34;11.38;;;7.75;;
47804;SDS011;33568;45.286;9.900;2024-03-02T11:38:08;7.88;;;6.25;;
47804;SDS011;33568;45.286;9.900;2024-03-02T11:40:35;12.52;;;5.93;;
47804;SDS011;33568;45.286;9.900;2024-03-02T11:43:02;11.25;;;6.07;;
47804;SDS011;33568;45.286;9.900;2024-03-02T11:45:30;10.65;;;6.25;;
47804;SDS011;33568;45.286;9.900;2024-03-02T11:47:59;15.02;;;7.45;;
47804;SDS011;33568;45.286;9.900;2024-03-02T11:52:56;19.30;;;14.57;;
47804;SDS011;33568;45.286;9.900;2024-03-02T11:55:27;13.32;;;7.70;;
47804;SDS011;33568;45.286;9.900;2024-03-02T11:57:56;14.68;;;8.77;;
47804;SDS011;33568;45.286;9.900;2024-03-02T12:00:24;10.65;;;8.13;;
47804;SDS011;33568;45.286;9.900;2024-03-02T12:02:59;29.05;;;20.00;;
47804;SDS011;33568;45.286;9.900;2024-03-02T12:05:30;11.00;;;8.20;;
47804;SDS011;33568;45.286;9.900;2024-03-02T12:07:57;9.07;;;7.10;;
47804;SDS011;33568;45.286;9.900;2024-03-02T12:10:25;10.43;;;6.55;;
47804;SDS011;33568;45.286;9.900;2024-03-02T12:12:58;9.18;;;6.88;;
47804;SDS011;33568;45.286;9.900;2024-03-02T12:15:29;16.55;;;10.23;;
47804;SDS011;33568;45.286;9.900;2024-03-02T12:17:58;22.35;;;14.88;;
47804;SDS011;33568;45.286;9.900;2024-03-02T12:20:25;20.88;;;14.50;;
47804;SDS011;33568;45.286;9.900;2024-03-02T12:22:57;11.52;;;8.27;;
47804;SDS011;33568;45.286;9.900;2024-03-02T12:25:25;10.45;;;7.43;;
47804;SDS011;33568;45.286;9.900;2024-03-02T12:27:56;25.33;;;20.52;;
47804;SDS011;33568;45.286;9.900;2024-03-02T12:30:24;12.93;;;10.13;;
47804;SDS011;33568;45.286;9.900;2024-03-02T12:32:52;7.97;;;5.72;;
47804;SDS011;33568;45.286;9.900;2024-03-02T12:35:19;13.23;;;5.90;;
47804;SDS011;33568;45.286;9.900;2024-03-02T12:37:50;8.48;;;5.57;;
47804;SDS011;33568;45.286;9.900;2024-03-02T12:40:18;8.00;;;5.60;;
47804;SDS011;33568;45.286;9.900;2024-03-02T12:42:46;6.78;;;5.40;;
47804;SDS011;33568;45.286;9.900;2024-03-02T12:45:13;8.30;;;4.88;;
47804;SDS011;33568;45.286;9.900;2024-03-02T12:47:40;7.45;;;5.45;;
47804;SDS011;33568;45.286;9.900;2024-03-02T12:50:07;8.25;;;4.70;;
47804;SDS011;33568;45.286;9.900;2024-03-02T12:52:35;7.78;;;5.43;;
47804;SDS011;33568;45.286;9.900;2024-03-02T12:55:02;8.95;;;5.15;;
47804;SDS011;33568;45.286;9.900;2024-03-02T12:57:33;7.28;;;4.93;;
47804;SDS011;33568;45.286;9.900;2024-03-02T13:00:00;6.97;;;5.15;;
47804;SDS011;33568;45.286;9.900;2024-03-02T13:02:41;7.65;;;4.82;;
47804;SDS011;33568;45.286;9.900;2024-03-02T13:05:08;10.00;;;5.97;;
47804;SDS011;33568;45.286;9.900;2024-03-02T13:07:37;7.80;;;5.05;;
47804;SDS011;33568;45.286;9.900;2024-03-02T13:10:04;10.45;;;5.38;;
47804;SDS011;33568;45.286;9.900;2024-03-02T13:12:33;8.90;;;4.88;;
47804;SDS011;33568;45.286;9.900;2024-03-02T13:15:01;6.35;;;5.05;;
47804;SDS011;33568;45.286;9.900;2024-03-02T13:17:29;6.43;;;4.57;;
47804;SDS011;33568;45.286;9.900;2024-03-02T13:22:23;10.63;;;5.47;;
47804;SDS011;33568;45.286;9.900;2024-03-02T13:24:50;8.20;;;5.45;;
47804;SDS011;33568;45.286;9.900;2024-03-02T13:27:17;13.07;;;7.30;;
47804;SDS011;33568;45.286;9.900;2024-03-02T13:29:47;7.95;;;6.60;;
47804;SDS011;33568;45.286;9.900;2024-03-02T13:32:14;10.70;;;6.20;;
47804;SDS011;33568;45.286;9.900;2024-03-02T13:34:46;12.95;;;6.80;;
47804;SDS011;33568;45.286;9.900;2024-03-02T13:39:39;12.57;;;6.03;;
47804;SDS011;33568;45.286;9.900;2024-03-02T13:42:07;13.27;;;6.55;;
47804;SDS011;33568;45.286;9.900;2024-03-02T13:44:35;11.90;;;9.45;;
47804;SDS011;33568;45.286;9.900;2024-03-02T13:47:02;15.70;;;10.50;;
47804;SDS011;33568;45.286;9.900;2024-03-02T13:49:30;12.68;;;7.53;;
47804;SDS011;33568;45.286;9.900;2024-03-02T13:52:08;18.50;;;15.80;;
47804;SDS011;33568;45.286;9.900;2024-03-02T13:54:48;9.80;;;7.70;;
47804;SDS011;33568;45.286;9.900;2024-03-02T13:57:14;9.05;;;8.02;;
47804;SDS011;33568;45.286;9.900;2024-03-02T13:59:41;10.05;;;7.93;;
47804;SDS011;33568;45.286;9.900;2024-03-02T14:02:09;10.50;;;8.05;;
47804;SDS011;33568;45.286;9.900;2024-03-02T14:07:02;11.95;;;9.20;;
47804;SDS011;33568;45.286;9.900;2024-03-02T14:09:29;12.70;;;8.88;;
47804;SDS011;33568;45.286;9.900;2024-03-02T14:11:55;11.15;;;8.43;;
47804;SDS011;33568;45.286;9.900;2024-03-02T14:14:22;26.10;;;15.20;;
47804;SDS011;33568;45.286;9.900;2024-03-02T14:19:15;12.38;;;9.57;;
47804;SDS011;33568;45.286;9.900;2024-03-02T14:24:08;11.55;;;9.38;;
47804;SDS011;33568;45.286;9.900;2024-03-02T14:26:35;15.48;;;9.77;;
47804;SDS011;33568;45.286;9.900;2024-03-02T14:29:03;13.65;;;11.02;;
47804;SDS011;33568;45.286;9.900;2024-03-02T14:31:29;11.90;;;9.38;;
47804;SDS011;33568;45.286;9.900;2024-03-02T14:33:57;11.40;;;9.63;;
47804;SDS011;33568;45.286;9.900;2024-03-02T14:36:23;12.25;;;10.48;;
47804;SDS011;33568;45.286;9.900;2024-03-02T14:38:50;20.85;;;13.18;;
47804;SDS011;33568;45.286;9.900;2024-03-02T14:41:16;14.95;;;9.32;;
47804;SDS011;33568;45.286;9.900;2024-03-02T14:43:43;9.93;;;9.02;;
47804;SDS011;33568;45.286;9.900;2024-03-02T14:46:09;20.73;;;13.50;;
47804;SDS011;33568;45.286;9.900;2024-03-02T14:48:37;23.90;;;19.30;;
47804;SDS011;33568;45.286;9.900;2024-03-02T14:51:03;15.50;;;12.40;;
47804;SDS011;33568;45.286;9.900;2024-03-02T14:53:30;16.58;;;12.40;;
47804;SDS011;33568;45.286;9.900;2024-03-02T14:58:23;13.52;;;10.32;;
47804;SDS011;33568;45.286;9.900;2024-03-02T15:00:51;15.95;;;9.52;;
47804;SDS011;33568;45.286;9.900;2024-03-02T15:05:44;13.48;;;9.13;;
47804;SDS011;33568;45.286;9.900;2024-03-02T15:08:11;12.68;;;8.93;;
47804;SDS011;33568;45.286;9.900;2024-03-02T15:10:37;11.75;;;9.20;;
47804;SDS011;33568;45.286;9.900;2024-03-02T15:13:04;13.77;;;9.52;;
47804;SDS011;33568;45.286;9.900;2024-03-02T15:15:31;11.30;;;9.48;;
47804;SDS011;33568;45.286;9.900;2024-03-02T15:17:58;10.98;;;9.77;;
47804;SDS011;33568;45.286;9.900;2024-03-02T15:20:25;12.98;;;11.63;;
47804;SDS011;33568;45.286;9.900;2024-03-02T15:22:51;15.25;;;10.48;;
47804;SDS011;33568;45.286;9.900;2024-03-02T15:25:18;12.65;;;10.43;;
47804;SDS011;33568;45.286;9.900;2024-03-02T15:30:10;15.52;;;10.75;;
47804;SDS011;33568;45.286;9.900;2024-03-02T15:32:37;21.98;;;17.33;;
47804;SDS011;33568;45.286;9.900;2024-03-02T15:35:05;12.88;;;11.60;;
47804;SDS011;33568;45.286;9.900;2024-03-02T15:37:31;22.92;;;18.52;;
47804;SDS011;33568;45.286;9.900;2024-03-02T15:39:58;26.10;;;21.77;;
47804;SDS011;33568;45.286;9.900;2024-03-02T15:42:32;24.50;;;17.73;;
47804;SDS011;33568;45.286;9.900;2024-03-02T15:44:58;28.60;;;20.13;;
47804;SDS011;33568;45.286;9.900;2024-03-02T15:47:25;13.77;;;11.88;;
47804;SDS011;33568;45.286;9.900;2024-03-02T15:49:52;15.10;;;11.95;;
47804;SDS011;33568;45.286;9.900;2024-03-02T15:54:45;16.08;;;14.35;;
47804;SDS011;33568;45.286;9.900;2024-03-02T15:57:11;15.63;;;13.07;;
47804;SDS011;33568;45.286;9.900;2024-03-02T15:59:38;16.23;;;12.15;;
47804;SDS011;33568;45.286;9.900;2024-03-02T16:02:05;14.25;;;12.77;;
47804;SDS011;33568;45.286;9.900;2024-03-02T16:04:31;15.18;;;13.52;;
47804;SDS011;33568;45.286;9.900;2024-03-02T16:06:57;20.23;;;16.48;;
47804;SDS011;33568;45.286;9.900;2024-03-02T16:11:50;16.73;;;12.48;;
47804;SDS011;33568;45.286;9.900;2024-03-02T16:14:17;16.85;;;12.70;;
47804;SDS011;33568;45.286;9.900;2024-03-02T16:16:43;18.83;;;13.48;;
47804;SDS011;33568;45.286;9.900;2024-03-02T16:19:11;20.65;;;15.10;;